sensor_id;sensor_type;location;lat;lon;timestamp;pressure;altitude;pressure_sealevel;temperature;humidity
54270;BME280;40181;51.560;13.000;2023-04-25T00:00:13;99858.22;;;8.16;74.32
54270;BME280;40181;51.560;13.000;2023-04-25T00:02:42;99839.31;;;8.42;73.53
54270;BME280;40181;51.560;13.000;2023-04-25T00:05:12;99859.63;;;8.65;72.92
54270;BME280;40181;51.560;13.000;2023-04-25T00:07:44;99849.66;;;8.34;73.66
54270;BME280;40181;51.560;13.000;2023-04-25T00:10:13;99837.44;;;8.30;73.85
54270;BME280;40181;51.560;13.000;2023-04-25T00:12:43;99846.41;;;8.52;73.58
54270;BME280;40181;51.560;13.000;2023-04-25T00:15:13;99850.47;;;8.27;73.50
54270;BME280;40181;51.560;13.000;2023-04-25T00:17:43;99847.75;;;8.19;74.00
54270;BME280;40181;51.560;13.000;2023-04-25T00:20:12;99839.03;;;8.17;74.55
54270;BME280;40181;51.560;13.000;2023-04-25T00:22:44;99841.19;;;8.54;73.14
54270;BME280;40181;51.560;13.000;2023-04-25T00:25:13;99843.94;;;8.68;72.90
54270;BME280;40181;51.560;13.000;2023-04-25T00:27:42;99849.44;;;8.12;74.65
54270;BME280;40181;51.560;13.000;2023-04-25T00:30:13;99849.50;;;8.17;74.65
54270;BME280;40181;51.560;13.000;2023-04-25T00:32:42;99843.53;;;8.30;74.54
54270;BME280;40181;51.560;13.000;2023-04-25T00:35:11;99839.94;;;8.21;74.02
54270;BME280;40181;51.560;13.000;2023-04-25T00:37:43;99841.28;;;8.65;72.62
54270;BME280;40181;51.560;13.000;2023-04-25T00:40:12;99840.53;;;8.74;72.03
54270;BME280;40181;51.560;13.000;2023-04-25T00:42:41;99830.00;;;8.69;72.27
54270;BME280;40181;51.560;13.000;2023-04-25T00:45:13;99832.94;;;8.21;74.16
54270;BME280;40181;51.560;13.000;2023-04-25T00:47:42;99827.66;;;8.16;74.36
54270;BME280;40181;51.560;13.000;2023-04-25T00:50:13;99827.16;;;8.49;73.50
54270;BME280;40181;51.560;13.000;2023-04-25T00:52:45;99826.25;;;8.45;73.49
54270;BME280;40181;51.560;13.000;2023-04-25T00:55:14;99833.19;;;8.41;73.51
54270;BME280;40181;51.560;13.000;2023-04-25T00:57:43;99831.44;;;8.40;73.87
54270;BME280;40181;51.560;13.000;2023-04-25T01:00:13;99828.28;;;7.94;75.71
54270;BME280;40181;51.560;13.000;2023-04-25T01:02:44;99829.72;;;8.44;74.15
54270;BME280;40181;51.560;13.000;2023-04-25T01:05:14;99836.56;;;8.33;74.38
54270;BME280;40181;51.560;13.000;2023-04-25T01:07:46;99832.19;;;8.30;74.95
54270;BME280;40181;51.560;13.000;2023-04-25T01:10:15;99820.94;;;8.39;74.46
54270;BME280;40181;51.560;13.000;2023-04-25T01:12:44;99828.59;;;8.23;75.44
54270;BME280;40181;51.560;13.000;2023-04-25T01:15:13;99825.88;;;8.14;76.13
54270;BME280;40181;51.560;13.000;2023-04-25T01:17:43;99824.38;;;8.33;75.19
54270;BME280;40181;51.560;13.000;2023-04-25T01:20:15;99814.47;;;8.07;76.51
54270;BME280;40181;51.560;13.000;2023-04-25T01:22:47;99817.34;;;8.29;75.30
54270;BME280;40181;51.560;13.000;2023-04-25T01:25:18;99816.28;;;8.13;75.67
54270;BME280;40181;51.560;13.000;2023-04-25T01:27:47;99813.06;;;8.37;75.35
54270;BME280;40181;51.560;13.000;2023-04-25T01:30:16;99821.16;;;8.59;74.21
54270;BME280;40181;51.560;13.000;2023-04-25T01:32:46;99827.06;;;8.42;74.80
54270;BME280;40181;51.560;13.000;2023-04-25T01:35:16;99829.88;;;8.58;74.55
54270;BME280;40181;51.560;13.000;2023-04-25T01:37:48;99824.69;;;8.63;74.55
54270;BME280;40181;51.560;13.000;2023-04-25T01:40:17;99820.25;;;8.54;74.79
54270;BME280;40181;51.560;13.000;2023-04-25T01:42:46;99825.94;;;8.19;76.46
54270;BME280;40181;51.560;13.000;2023-04-25T01:45:16;99832.56;;;7.88;78.48
54270;BME280;40181;51.560;13.000;2023-04-25T01:47:46;99834.72;;;8.24;77.17
54270;BME280;40181;51.560;13.000;2023-04-25T01:50:16;99812.97;;;8.28;77.62
54270;BME280;40181;51.560;13.000;2023-04-25T01:52:49;99813.59;;;8.05;79.41
54270;BME280;40181;51.560;13.000;2023-04-25T01:55:18;99817.41;;;8.35;78.08
54270;BME280;40181;51.560;13.000;2023-04-25T01:57:47;99822.31;;;8.06;79.70
54270;BME280;40181;51.560;13.000;2023-04-25T02:00:17;99819.56;;;7.93;80.41
54270;BME280;40181;51.560;13.000;2023-04-25T02:02:46;99830.22;;;8.12;80.06
54270;BME280;40181;51.560;13.000;2023-04-25T02:05:16;99828.72;;;8.33;78.72
54270;BME280;40181;51.560;13.000;2023-04-25T02:07:48;99822.41;;;8.13;79.23
54270;BME280;40181;51.560;13.000;2023-04-25T02:10:17;99819.56;;;7.93;81.49
54270;BME280;40181;51.560;13.000;2023-04-25T02:12:46;99836.47;;;8.25;79.92
54270;BME280;40181;51.560;13.000;2023-04-25T02:15:15;99833.47;;;7.91;81.57
54270;BME280;40181;51.560;13.000;2023-04-25T02:17:44;99816.06;;;7.94;81.56
54270;BME280;40181;51.560;13.000;2023-04-25T02:20:14;99825.84;;;8.08;81.13
54270;BME280;40181;51.560;13.000;2023-04-25T02:22:47;99822.00;;;7.79;82.83
54270;BME280;40181;51.560;13.000;2023-04-25T02:25:16;99831.78;;;7.29;86.14
54270;BME280;40181;51.560;13.000;2023-04-25T02:27:46;99833.63;;;7.38;86.48
54270;BME280;40181;51.560;13.000;2023-04-25T02:30:16;99825.19;;;7.56;85.95
54270;BME280;40181;51.560;13.000;2023-04-25T02:32:46;99820.84;;;7.60;85.60
54270;BME280;40181;51.560;13.000;2023-04-25T02:35:15;99823.34;;;7.51;85.85
54270;BME280;40181;51.560;13.000;2023-04-25T02:37:47;99828.50;;;7.46;85.87
54270;BME280;40181;51.560;13.000;2023-04-25T02:40:18;99824.34;;;7.57;85.85
54270;BME280;40181;51.560;13.000;2023-04-25T02:42:47;99821.88;;;7.10;87.43
54270;BME280;40181;51.560;13.000;2023-04-25T02:45:16;99821.69;;;6.97;88.75
54270;BME280;40181;51.560;13.000;2023-04-25T02:47:46;99824.19;;;7.46;85.85
54270;BME280;40181;51.560;13.000;2023-04-25T02:50:15;99825.88;;;6.86;88.04
54270;BME280;40181;51.560;13.000;2023-04-25T02:52:44;99822.44;;;6.90;88.84
54270;BME280;40181;51.560;13.000;2023-04-25T02:55:15;99826.31;;;7.14;86.63
54270;BME280;40181;51.560;13.000;2023-04-25T02:57:45;99810.09;;;7.35;86.25
54270;BME280;40181;51.560;13.000;2023-04-25T03:00:14;99806.31;;;7.16;86.89
54270;BME280;40181;51.560;13.000;2023-04-25T03:02:43;99807.19;;;7.16;86.58
54270;BME280;40181;51.560;13.000;2023-04-25T03:05:13;99812.50;;;7.21;86.24
54270;BME280;40181;51.560;13.000;2023-04-25T03:07:42;99811.88;;;6.82;88.06
54270;BME280;40181;51.560;13.000;2023-04-25T03:10:14;99803.19;;;6.83;87.78
54270;BME280;40181;51.560;13.000;2023-04-25T03:12:43;99803.94;;;6.76;87.81
54270;BME280;40181;51.560;13.000;2023-04-25T03:15:12;99805.28;;;6.54;88.66
54270;BME280;40181;51.560;13.000;2023-04-25T03:17:41;99806.19;;;6.56;88.10
54270;BME280;40181;51.560;13.000;2023-04-25T03:20:11;99811.16;;;6.40;88.83
54270;BME280;40181;51.560;13.000;2023-04-25T03:22:41;99806.03;;;6.46;88.45
54270;BME280;40181;51.560;13.000;2023-04-25T03:25:10;99805.75;;;6.82;86.70
54270;BME280;40181;51.560;13.000;2023-04-25T03:27:43;99809.09;;;6.71;87.27
54270;BME280;40181;51.560;13.000;2023-04-25T03:30:12;99807.78;;;6.47;88.14
54270;BME280;40181;51.560;13.000;2023-04-25T03:32:41;99805.88;;;6.88;86.26
54270;BME280;40181;51.560;13.000;2023-04-25T03:35:10;99806.69;;;6.34;88.11
54270;BME280;40181;51.560;13.000;2023-04-25T03:37:40;99807.78;;;6.47;86.51
54270;BME280;40181;51.560;13.000;2023-04-25T03:40:10;99815.16;;;6.70;85.14
54270;BME280;40181;51.560;13.000;2023-04-25T03:42:42;99814.66;;;5.98;87.49
54270;BME280;40181;51.560;13.000;2023-04-25T03:45:11;99816.09;;;5.83;87.92
54270;BME280;40181;51.560;13.000;2023-04-25T03:47:40;99807.53;;;6.32;85.77
54270;BME280;40181;51.560;13.000;2023-04-25T03:50:10;99817.38;;;6.47;84.55
54270;BME280;40181;51.560;13.000;2023-04-25T03:52:42;99822.59;;;6.02;85.72
54270;BME280;40181;51.560;13.000;2023-04-25T03:55:14;99818.44;;;6.11;85.88
54270;BME280;40181;51.560;13.000;2023-04-25T03:57:43;99819.03;;;5.99;85.70
54270;BME280;40181;51.560;13.000;2023-04-25T04:00:13;99818.25;;;6.03;85.93
54270;BME280;40181;51.560;13.000;2023-04-25T04:02:43;99827.56;;;6.34;84.10
54270;BME280;40181;51.560;13.000;2023-04-25T04:05:12;99817.41;;;6.50;82.76
54270;BME280;40181;51.560;13.000;2023-04-25T04:07:41;99823.28;;;6.38;83.40
54270;BME280;40181;51.560;13.000;2023-04-25T04:10:10;99834.94;;;6.11;83.72
54270;BME280;40181;51.560;13.000;2023-04-25T04:12:42;99832.59;;;5.82;84.50
54270;BME280;40181;51.560;13.000;2023-04-25T04:15:11;99830.53;;;6.07;84.50
54270;BME280;40181;51.560;13.000;2023-04-25T04:17:40;99829.22;;;5.86;85.04
54270;BME280;40181;51.560;13.000;2023-04-25T04:20:10;99847.22;;;5.75;85.61
54270;BME280;40181;51.560;13.000;2023-04-25T04:22:39;99843.16;;;5.88;85.14
54270;BME280;40181;51.560;13.000;2023-04-25T04:25:08;99836.84;;;5.77;85.32
54270;BME280;40181;51.560;13.000;2023-04-25T04:27:40;99841.94;;;5.72;85.69
54270;BME280;40181;51.560;13.000;2023-04-25T04:30:10;99838.34;;;5.67;86.16
54270;BME280;40181;51.560;13.000;2023-04-25T04:32:40;99847.16;;;5.72;86.51
54270;BME280;40181;51.560;13.000;2023-04-25T04:35:09;99844.53;;;5.71;85.82
54270;BME280;40181;51.560;13.000;2023-04-25T04:37:39;99841.81;;;6.07;85.17
54270;BME280;40181;51.560;13.000;2023-04-25T04:40:09;99858.59;;;5.80;85.95
54270;BME280;40181;51.560;13.000;2023-04-25T04:42:43;99864.16;;;5.56;87.02
54270;BME280;40181;51.560;13.000;2023-04-25T04:45:13;99852.34;;;5.71;86.07
54270;BME280;40181;51.560;13.000;2023-04-25T04:47:43;99857.13;;;5.92;85.47
54270;BME280;40181;51.560;13.000;2023-04-25T04:50:13;99850.28;;;5.56;86.75
54270;BME280;40181;51.560;13.000;2023-04-25T04:52:43;99858.22;;;5.62;87.09
54270;BME280;40181;51.560;13.000;2023-04-25T04:55:12;99856.09;;;5.85;86.72
54270;BME280;40181;51.560;13.000;2023-04-25T04:57:44;99853.56;;;5.88;86.20
54270;BME280;40181;51.560;13.000;2023-04-25T05:00:14;99861.66;;;5.61;87.08
54270;BME280;40181;51.560;13.000;2023-04-25T05:02:43;99858.13;;;5.99;86.10
54270;BME280;40181;51.560;13.000;2023-04-25T05:05:12;99857.81;;;6.25;84.63
54270;BME280;40181;51.560;13.000;2023-04-25T05:07:41;99867.38;;;5.82;86.32
54270;BME280;40181;51.560;13.000;2023-04-25T05:10:10;99860.22;;;5.74;86.42
54270;BME280;40181;51.560;13.000;2023-04-25T05:12:39;99870.41;;;6.03;85.52
54270;BME280;40181;51.560;13.000;2023-04-25T05:15:11;99866.66;;;5.91;86.20
54270;BME280;40181;51.560;13.000;2023-04-25T05:17:41;99862.91;;;5.78;86.30
54270;BME280;40181;51.560;13.000;2023-04-25T05:20:10;99870.88;;;5.85;85.56
54270;BME280;40181;51.560;13.000;2023-04-25T05:22:40;99868.47;;;5.94;85.28
54270;BME280;40181;51.560;13.000;2023-04-25T05:25:09;99883.25;;;5.95;85.69
54270;BME280;40181;51.560;13.000;2023-04-25T05:27:38;99869.34;;;6.36;83.99
54270;BME280;40181;51.560;13.000;2023-04-25T05:30:11;99877.50;;;6.10;84.86
54270;BME280;40181;51.560;13.000;2023-04-25T05:32:40;99860.38;;;6.23;85.01
54270;BME280;40181;51.560;13.000;2023-04-25T05:35:09;99862.31;;;6.32;84.61
54270;BME280;40181;51.560;13.000;2023-04-25T05:37:38;99867.53;;;6.33;84.41
54270;BME280;40181;51.560;13.000;2023-04-25T05:40:08;99866.72;;;6.36;83.04
54270;BME280;40181;51.560;13.000;2023-04-25T05:42:38;99865.53;;;6.64;81.95
54270;BME280;40181;51.560;13.000;2023-04-25T05:45:07;99853.28;;;6.62;81.39
54270;BME280;40181;51.560;13.000;2023-04-25T05:47:39;99862.25;;;6.76;80.81
54270;BME280;40181;51.560;13.000;2023-04-25T05:50:09;99867.38;;;6.70;80.39
54270;BME280;40181;51.560;13.000;2023-04-25T05:52:38;99864.88;;;6.78;80.21
54270;BME280;40181;51.560;13.000;2023-04-25T05:55:08;99870.09;;;6.76;79.72
54270;BME280;40181;51.560;13.000;2023-04-25T05:57:37;99874.63;;;6.87;79.34
54270;BME280;40181;51.560;13.000;2023-04-25T06:00:11;99867.69;;;6.89;78.81
54270;BME280;40181;51.560;13.000;2023-04-25T06:02:42;99873.97;;;6.99;78.72
54270;BME280;40181;51.560;13.000;2023-04-25T06:05:11;99878.31;;;7.01;78.45
54270;BME280;40181;51.560;13.000;2023-04-25T06:07:40;99867.75;;;6.94;78.55
54270;BME280;40181;51.560;13.000;2023-04-25T06:10:09;99887.91;;;7.01;77.95
54270;BME280;40181;51.560;13.000;2023-04-25T06:12:38;99892.34;;;7.06;77.79
54270;BME280;40181;51.560;13.000;2023-04-25T06:15:11;99881.94;;;7.10;77.50
54270;BME280;40181;51.560;13.000;2023-04-25T06:17:41;99892.53;;;7.17;77.70
54270;BME280;40181;51.560;13.000;2023-04-25T06:20:10;99883.09;;;7.27;77.77
54270;BME280;40181;51.560;13.000;2023-04-25T06:22:40;99880.28;;;7.13;77.39
54270;BME280;40181;51.560;13.000;2023-04-25T06:25:09;99883.31;;;7.41;77.04
54270;BME280;40181;51.560;13.000;2023-04-25T06:27:38;99886.09;;;7.52;76.73
54270;BME280;40181;51.560;13.000;2023-04-25T06:30:08;99886.22;;;7.58;76.62
54270;BME280;40181;51.560;13.000;2023-04-25T06:32:41;99883.75;;;7.71;76.09
54270;BME280;40181;51.560;13.000;2023-04-25T06:35:10;99882.44;;;7.39;76.42
54270;BME280;40181;51.560;13.000;2023-04-25T06:37:40;99882.69;;;7.56;76.57
54270;BME280;40181;51.560;13.000;2023-04-25T06:40:09;99890.66;;;7.64;76.22
54270;BME280;40181;51.560;13.000;2023-04-25T06:42:38;99892.44;;;7.67;76.29
54270;BME280;40181;51.560;13.000;2023-04-25T06:45:08;99883.88;;;7.80;75.35
54270;BME280;40181;51.560;13.000;2023-04-25T06:47:40;99884.84;;;7.85;75.42
54270;BME280;40181;51.560;13.000;2023-04-25T06:50:09;99877.13;;;7.96;74.92
54270;BME280;40181;51.560;13.000;2023-04-25T06:52:39;99884.03;;;7.91;74.86
54270;BME280;40181;51.560;13.000;2023-04-25T06:55:09;99880.00;;;8.16;74.67
54270;BME280;40181;51.560;13.000;2023-04-25T06:57:38;99882.59;;;8.13;74.32
54270;BME280;40181;51.560;13.000;2023-04-25T07:00:08;99883.50;;;8.17;74.24
54270;BME280;40181;51.560;13.000;2023-04-25T07:02:41;99884.25;;;8.08;73.65
54270;BME280;40181;51.560;13.000;2023-04-25T07:05:10;99892.09;;;8.08;73.64
54270;BME280;40181;51.560;13.000;2023-04-25T07:07:39;99889.63;;;8.19;73.28
54270;BME280;40181;51.560;13.000;2023-04-25T07:10:09;99900.78;;;8.04;73.84
54270;BME280;40181;51.560;13.000;2023-04-25T07:12:38;99899.09;;;8.09;74.05
54270;BME280;40181;51.560;13.000;2023-04-25T07:15:08;99908.09;;;8.30;74.28
54270;BME280;40181;51.560;13.000;2023-04-25T07:17:40;99901.94;;;8.26;74.39
54270;BME280;40181;51.560;13.000;2023-04-25T07:20:09;99907.84;;;8.13;74.51
54270;BME280;40181;51.560;13.000;2023-04-25T07:22:39;99914.00;;;8.15;74.73
54270;BME280;40181;51.560;13.000;2023-04-25T07:25:08;99899.25;;;8.23;74.42
54270;BME280;40181;51.560;13.000;2023-04-25T07:27:37;99901.94;;;8.28;74.66
54270;BME280;40181;51.560;13.000;2023-04-25T07:30:08;99911.72;;;8.44;74.80
54270;BME280;40181;51.560;13.000;2023-04-25T07:32:40;99904.78;;;8.47;74.90
54270;BME280;40181;51.560;13.000;2023-04-25T07:35:10;99918.72;;;8.44;74.95
54270;BME280;40181;51.560;13.000;2023-04-25T07:37:39;99913.34;;;8.33;74.49
54270;BME280;40181;51.560;13.000;2023-04-25T07:40:09;99925.81;;;8.51;74.54
54270;BME280;40181;51.560;13.000;2023-04-25T07:42:40;99922.25;;;8.48;74.97
54270;BME280;40181;51.560;13.000;2023-04-25T07:45:10;99920.31;;;8.31;75.25
54270;BME280;40181;51.560;13.000;2023-04-25T07:47:42;99934.47;;;8.50;74.73
54270;BME280;40181;51.560;13.000;2023-04-25T07:50:11;99929.31;;;8.55;75.04
54270;BME280;40181;51.560;13.000;2023-04-25T07:52:40;99926.00;;;8.68;74.02
54270;BME280;40181;51.560;13.000;2023-04-25T07:55:09;99932.88;;;8.58;74.11
54270;BME280;40181;51.560;13.000;2023-04-25T07:57:38;99927.69;;;8.65;74.49
54270;BME280;40181;51.560;13.000;2023-04-25T08:00:08;99929.47;;;8.67;74.49
54270;BME280;40181;51.560;13.000;2023-04-25T08:02:38;99935.78;;;8.86;74.13
54270;BME280;40181;51.560;13.000;2023-04-25T08:05:10;99933.06;;;8.76;74.24
54270;BME280;40181;51.560;13.000;2023-04-25T08:07:40;99935.59;;;8.68;73.88
54270;BME280;40181;51.560;13.000;2023-04-25T08:10:09;99936.47;;;8.68;74.23
54270;BME280;40181;51.560;13.000;2023-04-25T08:12:38;99953.84;;;8.60;75.14
54270;BME280;40181;51.560;13.000;2023-04-25T08:15:09;99947.56;;;8.49;75.46
54270;BME280;40181;51.560;13.000;2023-04-25T08:17:39;99939.91;;;8.64;74.94
54270;BME280;40181;51.560;13.000;2023-04-25T08:20:12;99946.91;;;8.67;75.41
54270;BME280;40181;51.560;13.000;2023-04-25T08:22:41;99946.84;;;8.59;76.23
54270;BME280;40181;51.560;13.000;2023-04-25T08:25:10;99948.63;;;8.63;75.47
54270;BME280;40181;51.560;13.000;2023-04-25T08:27:39;99963.50;;;8.66;75.86
54270;BME280;40181;51.560;13.000;2023-04-25T08:30:09;99957.41;;;8.68;76.52
54270;BME280;40181;51.560;13.000;2023-04-25T08:32:38;99961.78;;;8.69;76.51
54270;BME280;40181;51.560;13.000;2023-04-25T08:35:10;99962.63;;;8.65;75.55
54270;BME280;40181;51.560;13.000;2023-04-25T08:37:39;99965.25;;;8.65;76.31
54270;BME280;40181;51.560;13.000;2023-04-25T08:40:11;99968.88;;;8.80;75.81
54270;BME280;40181;51.560;13.000;2023-04-25T08:42:42;99985.25;;;8.60;77.39
54270;BME280;40181;51.560;13.000;2023-04-25T08:45:11;99973.13;;;8.68;76.75
54270;BME280;40181;51.560;13.000;2023-04-25T08:47:45;99977.47;;;8.68;76.76
54270;BME280;40181;51.560;13.000;2023-04-25T08:50:14;99982.00;;;8.80;76.75
54270;BME280;40181;51.560;13.000;2023-04-25T08:52:44;99983.94;;;8.28;79.01
54270;BME280;40181;51.560;13.000;2023-04-25T08:55:15;99980.91;;;8.62;79.74
54270;BME280;40181;51.560;13.000;2023-04-25T08:57:44;99993.94;;;8.56;79.55
54270;BME280;40181;51.560;13.000;2023-04-25T09:00:14;99995.34;;;8.32;81.36
54270;BME280;40181;51.560;13.000;2023-04-25T09:02:46;99995.41;;;8.37;82.24
54270;BME280;40181;51.560;13.000;2023-04-25T09:05:16;100013.59;;;8.27;83.21
54270;BME280;40181;51.560;13.000;2023-04-25T09:07:45;100012.44;;;8.07;84.97
54270;BME280;40181;51.560;13.000;2023-04-25T09:10:14;100017.47;;;7.93;85.54
54270;BME280;40181;51.560;13.000;2023-04-25T09:12:43;100021.00;;;7.98;84.04
54270;BME280;40181;51.560;13.000;2023-04-25T09:15:13;100023.00;;;8.14;81.34
54270;BME280;40181;51.560;13.000;2023-04-25T09:17:42;100038.66;;;8.13;78.98
54270;BME280;40181;51.560;13.000;2023-04-25T09:20:14;100023.72;;;8.04;75.43
54270;BME280;40181;51.560;13.000;2023-04-25T09:22:45;100030.78;;;8.10;74.59
54270;BME280;40181;51.560;13.000;2023-04-25T09:25:14;100042.28;;;8.21;72.60
54270;BME280;40181;51.560;13.000;2023-04-25T09:27:50;100043.47;;;7.85;71.86
54270;BME280;40181;51.560;13.000;2023-04-25T09:30:28;100044.19;;;7.74;73.66
54270;BME280;40181;51.560;13.000;2023-04-25T09:33:03;100054.19;;;8.00;71.94
54270;BME280;40181;51.560;13.000;2023-04-25T09:35:40;100061.28;;;8.08;72.12
54270;BME280;40181;51.560;13.000;2023-04-25T09:38:10;100053.16;;;7.89;72.15
54270;BME280;40181;51.560;13.000;2023-04-25T09:40:45;100052.50;;;8.04;73.77
54270;BME280;40181;51.560;13.000;2023-04-25T09:43:19;100056.16;;;8.15;73.47
54270;BME280;40181;51.560;13.000;2023-04-25T09:45:49;100053.53;;;8.15;75.32
54270;BME280;40181;51.560;13.000;2023-04-25T09:48:19;100060.69;;;8.27;76.23
54270;BME280;40181;51.560;13.000;2023-04-25T09:51:03;100066.75;;;8.25;74.59
54270;BME280;40181;51.560;13.000;2023-04-25T09:53:34;100064.03;;;8.19;75.60
54270;BME280;40181;51.560;13.000;2023-04-25T09:56:05;100050.31;;;8.32;74.85
54270;BME280;40181;51.560;13.000;2023-04-25T09:58:40;100064.25;;;8.33;74.20
54270;BME280;40181;51.560;13.000;2023-04-25T10:01:10;100059.00;;;8.33;73.40
54270;BME280;40181;51.560;13.000;2023-04-25T10:03:40;100078.28;;;8.38;72.69
54270;BME280;40181;51.560;13.000;2023-04-25T10:06:13;100065.47;;;8.53;69.30
54270;BME280;40181;51.560;13.000;2023-04-25T10:08:50;100066.94;;;8.36;66.43
54270;BME280;40181;51.560;13.000;2023-04-25T10:11:21;100082.47;;;8.25;65.81
54270;BME280;40181;51.560;13.000;2023-04-25T10:13:53;100069.75;;;8.50;64.63
54270;BME280;40181;51.560;13.000;2023-04-25T10:16:22;100077.66;;;8.53;64.25
54270;BME280;40181;51.560;13.000;2023-04-25T10:18:53;100081.34;;;8.66;64.02
54270;BME280;40181;51.560;13.000;2023-04-25T10:21:27;100077.34;;;8.94;63.39
54270;BME280;40181;51.560;13.000;2023-04-25T10:23:57;100086.84;;;8.86;63.17
54270;BME280;40181;51.560;13.000;2023-04-25T10:26:27;100079.72;;;8.77;63.08
54270;BME280;40181;51.560;13.000;2023-04-25T10:28:57;100077.44;;;9.01;63.05
54270;BME280;40181;51.560;13.000;2023-04-25T10:31:27;100082.28;;;8.72;62.70
54270;BME280;40181;51.560;13.000;2023-04-25T10:33:57;100087.47;;;8.68;62.87
54270;BME280;40181;51.560;13.000;2023-04-25T10:36:31;100096.94;;;8.60;64.84
54270;BME280;40181;51.560;13.000;2023-04-25T10:39:04;100077.78;;;8.61;65.08
54270;BME280;40181;51.560;13.000;2023-04-25T10:41:48;100096.44;;;8.84;65.86
54270;BME280;40181;51.560;13.000;2023-04-25T10:44:21;100088.59;;;8.87;66.32
54270;BME280;40181;51.560;13.000;2023-04-25T10:46:51;100093.94;;;8.96;66.54
54270;BME280;40181;51.560;13.000;2023-04-25T10:49:38;100081.47;;;8.74;66.03
54270;BME280;40181;51.560;13.000;2023-04-25T10:52:18;100078.25;;;8.99;66.30
54270;BME280;40181;51.560;13.000;2023-04-25T10:54:54;100080.81;;;8.95;65.75
54270;BME280;40181;51.560;13.000;2023-04-25T10:57:36;100081.00;;;9.07;64.84
54270;BME280;40181;51.560;13.000;2023-04-25T11:00:10;100082.75;;;9.08;63.39
54270;BME280;40181;51.560;13.000;2023-04-25T11:02:41;100092.31;;;9.05;62.71
54270;BME280;40181;51.560;13.000;2023-04-25T11:05:20;100083.88;;;9.34;62.04
54270;BME280;40181;51.560;13.000;2023-04-25T11:07:58;100098.63;;;9.22;61.56
54270;BME280;40181;51.560;13.000;2023-04-25T11:10:29;100091.75;;;9.34;61.11
54270;BME280;40181;51.560;13.000;2023-04-25T11:13:00;100089.84;;;9.19;61.18
54270;BME280;40181;51.560;13.000;2023-04-25T11:15:30;100089.03;;;9.24;60.22
54270;BME280;40181;51.560;13.000;2023-04-25T11:17:59;100086.50;;;9.34;60.61
54270;BME280;40181;51.560;13.000;2023-04-25T11:20:28;100095.94;;;9.16;60.85
54270;BME280;40181;51.560;13.000;2023-04-25T11:23:00;100096.22;;;9.41;61.17
54270;BME280;40181;51.560;13.000;2023-04-25T11:25:29;100105.00;;;9.48;61.17
54270;BME280;40181;51.560;13.000;2023-04-25T11:27:59;100096.81;;;9.18;61.17
54270;BME280;40181;51.560;13.000;2023-04-25T11:30:28;100105.44;;;9.08;61.17
54270;BME280;40181;51.560;13.000;2023-04-25T11:32:58;100116.03;;;9.16;61.57
54270;BME280;40181;51.560;13.000;2023-04-25T11:35:28;100111.31;;;8.88;63.11
54270;BME280;40181;51.560;13.000;2023-04-25T11:38:01;100113.97;;;8.90;61.84
54270;BME280;40181;51.560;13.000;2023-04-25T11:40:30;100123.53;;;8.88;61.38
54270;BME280;40181;51.560;13.000;2023-04-25T11:43:01;100112.91;;;8.77;61.06
54270;BME280;40181;51.560;13.000;2023-04-25T11:45:30;100117.31;;;8.81;59.74
54270;BME280;40181;51.560;13.000;2023-04-25T11:47:59;100117.44;;;8.89;58.69
54270;BME280;40181;51.560;13.000;2023-04-25T11:50:30;100118.59;;;9.11;58.56
54270;BME280;40181;51.560;13.000;2023-04-25T11:53:02;100110.69;;;9.08;58.53
54270;BME280;40181;51.560;13.000;2023-04-25T11:55:31;100115.16;;;9.18;58.40
54270;BME280;40181;51.560;13.000;2023-04-25T11:58:03;100104.97;;;9.43;57.82
54270;BME280;40181;51.560;13.000;2023-04-25T12:00:34;100116.38;;;9.50;56.77
54270;BME280;40181;51.560;13.000;2023-04-25T12:03:03;100117.41;;;9.64;57.10
54270;BME280;40181;51.560;13.000;2023-04-25T12:05:32;100116.59;;;9.67;55.78
54270;BME280;40181;51.560;13.000;2023-04-25T12:08:15;100109.84;;;9.97;54.95
54270;BME280;40181;51.560;13.000;2023-04-25T12:10:45;100112.22;;;9.69;55.43
54270;BME280;40181;51.560;13.000;2023-04-25T12:13:19;100115.66;;;9.62;56.00
54270;BME280;40181;51.560;13.000;2023-04-25T12:15:49;100117.53;;;9.77;56.05
54270;BME280;40181;51.560;13.000;2023-04-25T12:18:23;100118.88;;;9.34;56.33
54270;BME280;40181;51.560;13.000;2023-04-25T12:20:53;100127.72;;;9.46;55.57
54270;BME280;40181;51.560;13.000;2023-04-25T12:23:28;100128.63;;;9.49;54.29
54270;BME280;40181;51.560;13.000;2023-04-25T12:25:58;100127.06;;;9.67;52.56
54270;BME280;40181;51.560;13.000;2023-04-25T12:28:28;100133.38;;;9.88;49.80
54270;BME280;40181;51.560;13.000;2023-04-25T12:30:59;100124.84;;;10.12;48.11
54270;BME280;40181;51.560;13.000;2023-04-25T12:33:30;100116.97;;;10.12;47.87
54270;BME280;40181;51.560;13.000;2023-04-25T12:36:01;100131.66;;;9.90;47.51
54270;BME280;40181;51.560;13.000;2023-04-25T12:38:39;100124.56;;;9.79;48.07
54270;BME280;40181;51.560;13.000;2023-04-25T12:41:09;100130.66;;;9.77;47.76
54270;BME280;40181;51.560;13.000;2023-04-25T12:43:38;100127.09;;;9.70;48.54
54270;BME280;40181;51.560;13.000;2023-04-25T12:46:07;100131.53;;;9.77;48.86
54270;BME280;40181;51.560;13.000;2023-04-25T12:48:36;100134.97;;;9.68;48.62
54270;BME280;40181;51.560;13.000;2023-04-25T12:51:06;100127.97;;;9.69;49.20
54270;BME280;40181;51.560;13.000;2023-04-25T12:53:37;100135.09;;;9.82;48.98
54270;BME280;40181;51.560;13.000;2023-04-25T12:56:07;100135.25;;;10.03;49.57
54270;BME280;40181;51.560;13.000;2023-04-25T12:58:36;100137.91;;;10.04;49.20
54270;BME280;40181;51.560;13.000;2023-04-25T13:01:05;100139.47;;;9.85;49.52
54270;BME280;40181;51.560;13.000;2023-04-25T13:03:34;100137.00;;;10.01;50.07
54270;BME280;40181;51.560;13.000;2023-04-25T13:06:04;100138.72;;;9.95;50.10
54270;BME280;40181;51.560;13.000;2023-04-25T13:08:36;100150.13;;;10.01;48.49
54270;BME280;40181;51.560;13.000;2023-04-25T13:11:07;100146.41;;;9.78;47.80
54270;BME280;40181;51.560;13.000;2023-04-25T13:13:36;100133.66;;;10.17;47.70